METAR AND TAF INFORMATION
METAR FOR ZBAA
ADDS - METARS form results

(0922 UTC 22 July 2019)
Data provider http://aviationweather.gov/metar/data/
 
METAR text: ZBAA 220900Z 19002MPS 150V240 2800 -SHRA BR NSC 31/25 Q1000 NOSIG
Conditions at: ZBAA (BEIJING/PEKING , CN) observed 0900 UTC 22 July 2019
Temperature: 31.0°C (88°F)
Dewpoint: 25.0°C (77°F) [RH = 71%]
Pressure (altimeter): 29.53 inches Hg (1000.0 mb)
Winds: from the S (190 degrees) at 5 MPH (4 knots; 2.1 m/s)
Visibility: 1.74 miles (2.80 km)
Ceiling: at least 12,000 feet AGL
Clouds: sky clear below 12,000 feet AGL
Weather: -SHRA BR  (light rain showers, mist)

METAR text: ZBAA 220830Z 14002MPS 2800 -SHRA BR NSC 31/25 Q1000 NOSIG
Conditions at: ZBAA (BEIJING/PEKING , CN) observed 0830 UTC 22 July 2019
Temperature: 31.0°C (88°F)
Dewpoint: 25.0°C (77°F) [RH = 71%]
Pressure (altimeter): 29.53 inches Hg (1000.0 mb)
Winds: from the SE (140 degrees) at 5 MPH (4 knots; 2.1 m/s)
Visibility: 1.74 miles (2.80 km)
Ceiling: at least 12,000 feet AGL
Clouds: sky clear below 12,000 feet AGL
Weather: -SHRA BR  (light rain showers, mist)

Forecast for: ZBAA (BEIJING/PEKING , CN)
Text: TAF ZBAA 220330Z 2206/2306 16004MPS 3500 BR NSC TX33/2207Z TN24/2221Z
Forecast period: 0600 UTC 22 July 2019 to 0600 UTC 23 July 2019
Forecast type: FROM: standard forecast or significant change
Winds: from the SSE (160 degrees) at 9 MPH (8 knots; 4.1 m/s)
Visibility: 2.17 miles (3.49 km)
Ceiling: unknown
Clouds: missing
Weather: BR  (mist)
Text: TEMPO 2215/2221 2400 SHRA BR FEW040CB BKN040
Forecast period: 1500 to 2100 UTC 22 July 2019
Forecast type: TEMPORARY: The following changes expected for less than half the time period
Visibility: 1.49 miles (2.40 km)
Ceiling: 4000 feet AGL
Clouds: few clouds at 4000 feet AGL
broken clouds at 4000 feet AGL
Weather: SHRA BR  (rain showers, mist)

 AIRPORT MAP

 RUNWAY INFORMATION

 AIRPORT FREQUENCIES
Type APP Name BEIJING AP Frequency 119.6 MHZ
Type APP Name BEIJING AP Frequency 119.7 MHZ
Type APP Name BEIJING AP Frequency 120.6 MHZ
Type APP Name BEIJING AP Frequency 121.1 MHZ
Type APP Name BEIJING AP Frequency 126.1 MHZ
Type APP Name BEIJING AP Frequency 127.75 MHZ
Type ATIS Name BEIJING AT Frequency 127.6 MHZ
Type CLD Name BEIJING DE Frequency 121.6 MHZ
Type GND Name GND EAST Frequency 121.7 MHZ
Type GND Name BEIJING GN Frequency 121.7 MHZ
Type GND Name GND WEST Frequency 121.9 MHZ
Type TWR Name BEIJING EA Frequency 118.5 MHZ
Type TWR Name BEIJING W Frequency 124.3 MHZ

 AIRPORT NEAR NAVIGATION AIDS
Type VOR-DME Name Beijing Frequency 114700 KHZ
Type VOR-DME Name Shaziying Frequency 117200 KHZ



2018 Air Astana Virtual Airline